Time;durP1;ratioP1;P1;durP2;ratioP2;P2;SDS_P1;SDS_P2;PMS_P1;PMS_P2;Temp;Humidity;BMP_temperature;BMP_pressure;BME280_temperature;BME280_humidity;BME280_pressure;Samples;Min_cycle;Max_cycle;Signal;HPM_P1;HPM_P2
2022/05/02 00:00:21;;;;;;;10.93;6.37;;;;;;;19.41;37.75;95200.63;5068773;28;20517;-57
2022/05/02 00:02:48;;;;;;;10.87;7.27;;;;;;;19.58;37.09;95198.09;5070294;28;20442;-58
2022/05/02 00:05:17;;;;;;;13.37;6.93;;;;;;;19.08;38.19;95202.72;5069797;28;20457;-58
2022/05/02 00:07:44;;;;;;;9.47;6.63;;;;;;;19.17;38.01;95204.34;5069836;28;20448;-60
2022/05/02 00:10:12;;;;;;;9.60;6.47;;;;;;;19.27;37.76;95194.56;5069907;28;20450;-54
2022/05/02 00:12:40;;;;;;;10.53;5.90;;;;;;;19.19;37.78;95199.53;5070687;28;20808;-51
2022/05/02 00:15:07;;;;;;;8.60;6.33;;;;;;;19.11;38.37;95191.47;5069628;28;20488;-56
2022/05/02 00:20:21;;;;;;;8.13;5.93;;;;;;;19.43;37.84;95193.16;5070143;28;20473;-62
2022/05/02 00:22:48;;;;;;;6.27;5.50;;;;;;;19.60;37.09;95198.56;5070857;28;20434;-55
2022/05/02 00:25:15;;;;;;;7.17;4.73;;;;;;;19.36;37.39;95187.47;5070014;28;20457;-59
2022/05/02 00:27:42;;;;;;;6.13;5.00;;;;;;;19.19;37.54;95194.22;5070488;28;20869;-57
2022/05/02 00:30:11;;;;;;;7.30;5.23;;;;;;;19.56;37.32;95194.97;5068038;28;20485;-62
2022/05/02 00:32:39;;;;;;;5.30;4.80;;;;;;;19.23;37.49;95193.59;5070658;28;20858;-59
2022/05/02 00:35:07;;;;;;;8.20;5.57;;;;;;;19.68;36.93;95185.31;5069452;28;20446;-58
2022/05/02 00:37:34;;;;;;;6.77;4.87;;;;;;;19.67;37.08;95188.28;5070307;28;20452;-54
2022/05/02 00:40:02;;;;;;;6.13;5.47;;;;;;;19.77;36.85;95188.03;5069612;28;20474;-60
2022/05/02 00:42:29;;;;;;;6.23;4.87;;;;;;;19.82;36.67;95193.19;5069449;28;20434;-61
2022/05/02 00:44:56;;;;;;;5.33;4.80;;;;;;;19.92;36.55;95185.78;5069613;28;20426;-61
2022/05/02 00:47:23;;;;;;;6.10;4.87;;;;;;;19.90;36.58;95184.50;5070340;28;20820;-57
2022/05/02 00:49:50;;;;;;;6.23;4.50;;;;;;;19.53;36.80;95187.56;5069898;28;20450;-56
2022/05/02 00:52:18;;;;;;;9.67;5.60;;;;;;;19.86;36.82;95180.88;5069925;28;20450;-57
2022/05/02 00:54:45;;;;;;;8.80;4.97;;;;;;;19.19;37.17;95178.28;5069536;28;20519;-53
2022/05/02 00:57:16;;;;;;;6.07;5.23;;;;;;;19.49;37.38;95176.00;5069665;28;20575;-61
2022/05/02 00:59:43;;;;;;;7.93;5.40;;;;;;;19.69;36.88;95175.50;5068967;28;20472;-62
2022/05/02 01:02:13;;;;;;;6.83;4.43;;;;;;;19.46;37.24;95176.59;5069578;28;20438;-58
2022/05/02 01:04:42;;;;;;;5.47;4.20;;;;;;;19.71;36.69;95170.63;5069481;28;20484;-53
2022/05/02 01:07:12;;;;;;;5.40;4.20;;;;;;;19.21;37.41;95160.13;5069331;28;20559;-54
2022/05/02 01:09:42;;;;;;;4.63;4.23;;;;;;;19.48;36.87;95163.78;5069198;28;20448;-60
2022/05/02 01:12:11;;;;;;;5.77;4.00;;;;;;;19.33;37.50;95140.22;5069581;28;20438;-60
2022/05/02 01:14:39;;;;;;;6.17;4.40;;;;;;;19.23;37.74;95155.31;5069642;28;20545;-61
2022/05/02 01:17:06;;;;;;;5.93;3.80;;;;;;;19.35;37.38;95156.66;5069208;28;20982;-56
2022/05/02 01:19:34;;;;;;;5.73;4.20;;;;;;;19.33;37.69;95153.53;5069879;28;20430;-63
2022/05/02 01:22:02;;;;;;;5.23;3.90;;;;;;;19.55;37.48;95153.50;5068995;28;20482;-56
2022/05/02 01:24:38;;;;;;;4.33;3.93;;;;;;;19.63;37.05;95155.44;5069746;28;20545;-57
2022/05/02 01:27:06;;;;;;;7.17;3.67;;;;;;;19.56;37.19;95147.88;5069048;28;20476;-58
2022/05/02 01:29:36;;;;;;;6.40;4.27;;;;;;;19.68;36.83;95142.00;5069796;28;20446;-60
2022/05/02 01:32:06;;;;;;;5.63;4.30;;;;;;;19.39;37.20;95142.47;5069131;28;20434;-55
2022/05/02 01:34:34;;;;;;;4.23;3.83;;;;;;;19.31;37.45;95137.88;5069611;28;20441;-55
2022/05/02 01:37:01;;;;;;;5.53;4.00;;;;;;;19.36;37.36;95137.00;5069122;28;20438;-56
2022/05/02 01:39:29;;;;;;;6.13;3.93;;;;;;;19.14;37.33;95127.91;5069662;28;20455;-49
2022/05/02 01:42:00;;;;;;;4.90;4.40;;;;;;;19.20;37.69;95121.38;5069155;28;20481;-56
2022/05/02 01:44:28;;;;;;;5.97;4.17;;;;;;;19.18;37.56;95134.19;5069582;28;20446;-63
2022/05/02 01:46:55;;;;;;;5.80;4.27;;;;;;;18.93;37.99;95124.19;5068761;28;20445;-59
2022/05/02 01:49:23;;;;;;;5.47;4.50;;;;;;;19.13;37.71;95121.03;5069414;28;20495;-59
2022/05/02 01:51:50;;;;;;;5.07;4.10;;;;;;;18.66;38.89;95128.78;5068801;28;20438;-52
2022/05/02 01:54:20;;;;;;;4.43;4.03;;;;;;;18.90;38.49;95116.78;5069060;28;20473;-62
2022/05/02 01:56:47;;;;;;;6.03;4.33;;;;;;;18.92;38.26;95119.16;5068907;28;20803;-56
2022/05/02 01:59:14;;;;;;;12.13;5.03;;;;;;;18.79;38.65;95115.50;5068676;28;20540;-56
2022/05/02 02:01:41;;;;;;;6.47;4.90;;;;;;;19.08;38.17;95117.72;5068076;28;20466;-61
2022/05/02 02:06:54;;;;;;;6.10;5.27;;;;;;;19.01;37.89;95123.44;5068749;28;20441;-56
2022/05/02 02:09:21;;;;;;;7.00;5.27;;;;;;;19.07;38.12;95111.63;5069290;28;20442;-54
2022/05/02 02:11:48;;;;;;;5.77;4.97;;;;;;;18.85;38.22;95108.19;5068522;28;20998;-63
2022/05/02 02:14:15;;;;;;;6.37;5.30;;;;;;;18.83;38.57;95105.81;5069120;28;20446;-57
2022/05/02 02:16:42;;;;;;;8.00;4.97;;;;;;;18.77;38.75;95096.41;5068135;28;20843;-56
2022/05/02 02:19:09;;;;;;;6.47;4.80;;;;;;;18.59;38.92;95100.03;5069042;28;20437;-53
2022/05/02 02:21:36;;;;;;;8.30;5.30;;;;;;;18.87;38.66;95098.81;5070936;28;20853;-59
2022/05/02 02:24:04;;;;;;;8.07;5.87;;;;;;;18.88;38.38;95100.41;5073225;28;20505;-58
2022/05/02 02:26:32;;;;;;;6.40;5.37;;;;;;;19.05;37.98;95102.38;5072480;28;20889;-61
2022/05/02 02:28:59;;;;;;;6.63;5.30;;;;;;;18.79;38.63;95088.16;5072612;28;20438;-60
2022/05/02 02:31:27;;;;;;;9.50;5.90;;;;;;;18.55;39.15;95090.31;5071918;28;20466;-53
2022/05/02 02:33:54;;;;;;;7.47;6.20;;;;;;;18.65;38.89;95088.19;5072547;28;20546;-57
2022/05/02 02:36:21;;;;;;;6.97;5.63;;;;;;;18.85;38.54;95079.75;5072242;28;20934;-59
2022/05/02 02:38:48;;;;;;;6.40;5.53;;;;;;;18.72;38.85;95077.94;5072903;28;20452;-56
2022/05/02 02:41:15;;;;;;;8.73;5.67;;;;;;;18.74;38.45;95075.75;5072062;28;20509;-56
2022/05/02 02:43:42;;;;;;;7.33;5.90;;;;;;;19.02;37.96;95073.78;5072555;28;20453;-62
2022/05/02 02:46:09;;;;;;;6.67;5.80;;;;;;;19.04;38.40;95074.25;5072107;28;20912;-61
2022/05/02 02:48:36;;;;;;;8.50;5.57;;;;;;;18.94;38.46;95077.94;5054903;28;20545;-53
2022/05/02 02:51:03;;;;;;;7.73;6.00;;;;;;;18.64;38.90;95067.25;5072325;28;20445;-56
2022/05/02 02:53:30;;;;;;;7.57;5.90;;;;;;;18.28;39.55;95080.53;5072266;28;20448;-63
2022/05/02 02:55:57;;;;;;;7.37;5.80;;;;;;;18.59;38.88;95068.19;5072155;28;20438;-53
2022/05/02 02:58:24;;;;;;;9.67;6.00;;;;;;;18.68;38.47;95063.72;5072891;28;20434;-58
2022/05/02 03:00:52;;;;;;;6.17;5.57;;;;;;;18.98;38.31;95065.63;5071610;28;20469;-50
2022/05/02 03:03:19;;;;;;;6.63;5.97;;;;;;;18.85;38.93;95071.78;5072434;28;20472;-50
2022/05/02 03:06:01;;;;;;;6.03;5.43;;;;;;;18.52;39.24;95069.69;5071666;28;20430;-54
2022/05/02 03:08:31;;;;;;;6.53;4.70;;;;;;;18.77;38.85;95074.38;5072190;28;20544;-59
2022/05/02 03:10:59;;;;;;;9.40;5.43;;;;;;;18.25;39.37;95072.38;5071595;28;20503;-54
2022/05/02 03:13:26;;;;;;;7.57;5.83;;;;;;;18.34;39.16;95052.78;5072431;28;20477;-63
2022/05/02 03:15:53;;;;;;;7.87;5.77;;;;;;;18.80;38.85;95066.59;5071231;28;20446;-55
2022/05/02 03:18:20;;;;;;;7.53;6.43;;;;;;;18.10;40.16;95068.19;5072040;28;20470;-57
2022/05/02 03:20:47;;;;;;;7.50;6.27;;;;;;;18.24;39.39;95053.03;5071681;28;20468;-54
2022/05/02 03:23:14;;;;;;;7.37;5.90;;;;;;;18.23;39.94;95056.75;5071704;28;20733;-60
2022/05/02 03:25:41;;;;;;;9.50;6.13;;;;;;;18.55;38.88;95061.91;5071439;28;20442;-56
2022/05/02 03:28:08;;;;;;;12.07;7.20;;;;;;;18.37;39.51;95073.44;5071831;28;20451;-59
2022/05/02 03:30:35;;;;;;;8.33;6.90;;;;;;;18.18;39.27;95070.13;5070937;28;20872;-59
2022/05/02 03:33:02;;;;;;;8.10;5.80;;;;;;;18.44;38.72;95065.06;5070894;28;20894;-51
2022/05/02 03:35:29;;;;;;;7.40;6.60;;;;;;;18.56;38.82;95063.44;5071000;28;20442;-58
2022/05/02 03:37:57;;;;;;;10.43;6.50;;;;;;;18.56;38.76;95068.75;5071658;28;20437;-61
2022/05/02 03:40:24;;;;;;;10.27;7.00;;;;;;;18.59;38.97;95068.19;5071322;28;20450;-52
2022/05/02 03:42:51;;;;;;;6.60;5.90;;;;;;;18.44;38.78;95065.88;5071131;28;21060;-52
2022/05/02 03:45:18;;;;;;;6.70;6.00;;;;;;;18.44;39.00;95055.25;5070650;28;20442;-58
2022/05/02 03:47:45;;;;;;;8.30;5.60;;;;;;;18.51;38.91;95066.22;5071378;28;20458;-58
2022/05/02 03:50:12;;;;;;;9.70;6.33;;;;;;;18.58;38.36;95061.28;5071096;28;20473;-56
2022/05/02 03:52:39;;;;;;;8.63;6.17;;;;;;;18.54;38.65;95068.28;5071026;28;20450;-54
2022/05/02 03:55:06;;;;;;;9.50;6.17;;;;;;;18.49;38.62;95068.41;5070714;28;20446;-58
2022/05/02 03:57:33;;;;;;;10.13;6.30;;;;;;;18.69;38.80;95067.94;5071816;28;20445;-57
2022/05/02 04:00:00;;;;;;;7.67;6.07;;;;;;;18.52;39.13;95073.09;5070484;28;20469;-57
2022/05/02 04:02:38;;;;;;;10.70;6.30;;;;;;;18.64;38.88;95070.72;5070151;28;20588;-58
2022/05/02 04:05:06;;;;;;;9.33;5.90;;;;;;;18.79;38.06;95078.31;5071033;28;20418;-57
2022/05/02 04:07:34;;;;;;;10.50;6.23;;;;;;;18.46;38.94;95074.31;5070688;28;20833;-58
2022/05/02 04:10:01;;;;;;;10.77;5.70;;;;;;;18.40;38.83;95074.69;5070487;28;20453;-61
2022/05/02 04:12:38;;;;;;;10.60;5.70;;;;;;;18.64;38.96;95062.75;5070978;28;20438;-56
2022/05/02 04:15:09;;;;;;;8.60;6.00;;;;;;;18.32;39.16;95067.44;5070609;28;20425;-46
2022/05/02 04:17:37;;;;;;;6.83;5.53;;;;;;;18.13;39.30;95072.88;5070752;28;20500;-51
2022/05/02 04:20:05;;;;;;;8.37;6.80;;;;;;;16.97;41.78;95080.34;5070419;28;20862;-52
2022/05/02 04:22:33;;;;;;;8.73;6.03;;;;;;;17.18;40.65;95078.94;5070882;28;20485;-57
2022/05/02 04:25:00;;;;;;;9.23;6.77;;;;;;;17.40;40.90;95083.59;5070574;28;20445;-58
2022/05/02 04:27:27;;;;;;;10.47;7.20;;;;;;;17.67;40.76;95080.19;5070980;28;20472;-57
2022/05/02 04:29:54;;;;;;;13.93;6.90;;;;;;;18.10;39.84;95078.78;5070294;28;20537;-60
2022/05/02 04:32:21;;;;;;;6.80;5.27;;;;;;;17.72;40.01;95086.19;5070548;28;20523;-61
2022/05/02 04:34:53;;;;;;;8.63;5.97;;;;;;;17.97;39.83;95076.94;5070141;28;20449;-58
2022/05/02 04:37:20;;;;;;;9.27;5.87;;;;;;;17.89;39.61;95082.94;5070798;28;20819;-57
2022/05/02 04:39:47;;;;;;;11.33;6.43;;;;;;;18.43;38.75;95085.50;5070639;28;20513;-52
2022/05/02 04:42:14;;;;;;;12.00;5.70;;;;;;;18.42;39.33;95083.94;5070261;28;21342;-58
2022/05/02 04:44:42;;;;;;;7.20;5.67;;;;;;;18.14;39.67;95082.41;5069280;28;20505;-56
2022/05/02 04:47:10;;;;;;;11.57;5.63;;;;;;;18.12;39.01;95089.88;5070058;28;20457;-54
2022/05/02 04:49:37;;;;;;;10.30;5.30;;;;;;;17.99;40.21;95085.41;5070231;28;20517;-59
2022/05/02 04:52:04;;;;;;;9.47;5.30;;;;;;;18.13;39.94;95080.84;5069309;28;20885;-54
2022/05/02 04:54:32;;;;;;;9.67;5.30;;;;;;;18.62;39.05;95072.88;5070156;28;20522;-49
2022/05/02 04:56:59;;;;;;;7.17;5.13;;;;;;;18.80;38.62;95079.88;5069293;28;20825;-53
2022/05/02 04:59:29;;;;;;;10.17;5.30;;;;;;;18.57;38.63;95080.97;5069710;28;20592;-49
2022/05/02 05:04:44;;;;;;;9.43;5.70;;;;;;;18.45;38.83;95083.34;5069204;28;20433;-57
2022/05/02 05:07:12;;;;;;;8.07;5.10;;;;;;;18.57;38.99;95078.31;5070225;28;20822;-56
2022/05/02 05:09:40;;;;;;;6.20;5.40;;;;;;;18.55;39.03;95069.84;5069992;28;20464;-53
2022/05/02 05:12:36;;;;;;;7.20;5.53;;;;;;;18.54;38.93;95065.63;5069203;28;20912;-58
2022/05/02 05:18:41;;;;;;;7.83;5.50;;;;;;;18.90;38.70;95063.69;5069115;28;20446;-56
2022/05/02 05:21:58;;;;;;;8.57;5.40;;;;;;;19.14;38.41;95064.16;5068843;28;20430;-58
2022/05/02 05:25:07;;;;;;;11.17;5.23;;;;;;;19.28;38.26;95055.31;5069626;28;20442;-61
2022/05/02 05:27:58;;;;;;;10.33;4.93;;;;;;;18.72;38.58;95056.69;5069499;28;20959;-56
2022/05/02 05:30:27;;;;;;;6.73;4.97;;;;;;;18.85;39.51;95055.84;5068650;28;20460;-53
2022/05/02 05:33:22;;;;;;;7.73;5.10;;;;;;;19.45;37.81;95058.09;5068879;28;20461;-52
2022/05/02 05:36:17;;;;;;;7.10;5.47;;;;;;;19.23;38.16;95058.13;5068974;28;20446;-57
2022/05/02 05:38:56;;;;;;;9.70;5.23;;;;;;;19.67;37.93;95058.78;5069176;28;20441;-61
2022/05/02 05:41:50;;;;;;;8.87;5.00;;;;;;;19.67;37.46;95055.38;5069183;28;20477;-62
2022/05/02 05:44:35;;;;;;;8.67;4.80;;;;;;;19.68;37.48;95056.91;5070034;28;20449;-57
2022/05/02 05:47:32;;;;;;;8.47;5.37;;;;;;;19.47;37.67;95055.91;5068392;28;20973;-58
2022/05/02 05:50:26;;;;;;;6.97;5.20;;;;;;;19.05;37.90;95052.69;5068887;28;20511;-54
2022/05/02 05:53:23;;;;;;;7.53;5.30;;;;;;;19.34;37.43;95060.25;5065750;28;20446;-59
2022/05/02 05:56:12;;;;;;;7.27;5.07;;;;;;;19.41;37.55;95057.94;5067364;28;20561;-51
2022/05/02 05:59:06;;;;;;;8.77;4.90;;;;;;;19.45;37.46;95060.75;5068187;28;21171;-62
2022/05/02 06:02:00;;;;;;;6.63;4.90;;;;;;;18.92;37.70;95050.91;5067325;28;20929;-55
2022/05/02 06:04:33;;;;;;;12.30;5.17;;;;;;;19.28;37.27;95052.66;5068687;28;20525;-59
2022/05/02 06:07:01;;;;;;;8.60;5.10;;;;;;;19.58;37.26;95047.34;5067954;28;20446;-56
2022/05/02 06:09:31;;;;;;;9.40;5.30;;;;;;;19.59;37.33;95029.53;5068288;28;20512;-59
2022/05/02 06:11:59;;;;;;;9.87;5.40;;;;;;;19.51;37.08;95040.91;5068663;28;20503;-59
2022/05/02 06:14:30;;;;;;;9.77;5.17;;;;;;;19.20;36.94;95039.03;5068777;28;20565;-55
2022/05/02 06:19:48;;;;;;;9.90;5.40;;;;;;;19.89;36.75;95026.03;5068210;28;20976;-51
2022/05/02 06:22:18;;;;;;;7.73;5.37;;;;;;;19.63;36.56;95033.16;5068623;28;20477;-53
2022/05/02 06:24:46;;;;;;;8.20;5.67;;;;;;;19.80;36.90;95038.50;5068426;28;20433;-54
2022/05/02 06:27:15;;;;;;;8.30;6.20;;;;;;;19.95;37.12;95035.41;5066752;28;20473;-55
2022/05/02 06:29:45;;;;;;;8.30;5.80;;;;;;;19.70;36.95;95028.16;5067183;28;20513;-56
2022/05/02 06:32:15;;;;;;;9.37;6.17;;;;;;;19.72;37.12;95023.31;5067630;28;20491;-56
2022/05/02 06:34:42;;;;;;;13.47;6.17;;;;;;;19.92;36.43;95022.75;5068561;28;20491;-55
2022/05/02 06:37:19;;;;;;;10.93;6.80;;;;;;;19.85;37.27;95014.44;5068375;28;20438;-57
2022/05/02 06:40:12;;;;;;;8.60;6.23;;;;;;;20.29;36.45;95008.84;5068335;28;20434;-50
2022/05/02 06:42:42;;;;;;;6.40;5.77;;;;;;;19.65;36.46;95020.34;5067456;28;20926;-57
2022/05/02 06:45:22;;;;;;;7.40;6.70;;;;;;;20.20;36.23;95016.06;5068202;28;20890;-55
2022/05/02 06:48:18;;;;;;;12.93;6.93;;;;;;;20.07;36.41;95017.75;5068657;28;20430;-57
2022/05/02 06:50:50;;;;;;;8.73;6.20;;;;;;;20.60;35.92;95009.47;5054508;28;20936;-60
2022/05/02 06:53:54;;;;;;;10.37;5.80;;;;;;;20.41;35.39;95011.69;5068537;28;20446;-53
2022/05/02 06:56:31;;;;;;;10.67;6.00;;;;;;;20.62;35.76;94993.97;5067248;28;20532;-60
2022/05/02 06:59:02;;;;;;;9.60;5.87;;;;;;;20.38;35.53;94996.38;5066486;28;20588;-58
2022/05/02 07:01:32;;;;;;;10.37;5.80;;;;;;;20.27;36.06;95007.63;5068095;28;20519;-54
2022/05/02 07:04:22;;;;;;;8.27;6.17;;;;;;;20.57;35.32;94994.13;5067854;28;21732;-56
2022/05/02 07:07:11;;;;;;;10.97;5.67;;;;;;;20.15;36.47;94997.56;5029939;28;20449;-59
2022/05/02 07:09:52;;;;;;;9.17;6.33;;;;;;;20.55;35.00;94991.00;5071719;28;20534;-61
2022/05/02 07:12:23;;;;;;;9.33;4.67;;;;;;;20.90;34.24;94987.19;5071240;28;20478;-54
2022/05/02 07:15:09;;;;;;;10.10;5.60;;;;;;;21.30;34.21;94994.91;5054031;28;20491;-60
2022/05/02 07:17:43;;;;;;;6.67;5.17;;;;;;;21.03;34.50;94991.59;5072165;28;20527;-57
2022/05/02 07:20:27;;;;;;;8.53;5.50;;;;;;;20.70;34.83;94987.06;5071535;28;20467;-54
2022/05/02 07:23:25;;;;;;;7.87;5.60;;;;;;;20.87;34.72;94982.50;5071456;28;20465;-56
2022/05/02 07:26:02;;;;;;;11.53;7.40;;;;;;;21.30;34.09;94989.59;5070423;28;20945;-58
2022/05/02 07:28:44;;;;;;;28.30;23.60;;;;;;;21.20;33.87;94995.28;5069430;28;20442;-59
2022/05/02 07:31:22;;;;;;;8.87;6.20;;;;;;;21.53;33.31;94980.25;5069352;28;20495;-53
2022/05/02 07:33:51;;;;;;;31.83;27.23;;;;;;;21.14;34.21;94974.16;5069492;28;20441;-56
2022/05/02 07:36:23;;;;;;;14.60;11.70;;;;;;;20.91;33.44;94977.31;5069436;28;20450;-62
2022/05/02 07:39:01;;;;;;;7.93;5.17;;;;;;;21.00;33.51;94984.19;5053074;28;20552;-57
2022/05/02 07:41:29;;;;;;;9.17;5.13;;;;;;;21.31;32.81;94980.50;5068493;28;20573;-62
2022/05/02 07:44:00;;;;;;;9.00;5.60;;;;;;;21.34;33.49;94982.53;5068746;28;20447;-60
2022/05/02 07:46:41;;;;;;;6.10;5.50;;;;;;;21.64;32.44;94973.44;5069379;28;20528;-64
2022/05/02 07:49:10;;;;;;;7.40;6.40;;;;;;;21.32;32.80;94979.38;5069010;28;20456;-58
2022/05/02 07:51:52;;;;;;;11.90;7.83;;;;;;;21.56;32.99;94958.25;5068138;28;20478;-50
2022/05/02 07:54:21;;;;;;;13.20;7.60;;;;;;;21.22;32.88;94982.44;5067811;28;20565;-52
2022/05/02 07:56:50;;;;;;;9.03;7.53;;;;;;;21.61;32.60;94971.41;5067835;28;20435;-60
2022/05/02 07:59:25;;;;;;;29.10;25.10;;;;;;;21.37;32.55;94987.22;5068808;28;20478;-54
2022/05/02 08:01:53;;;;;;;97.07;86.50;;;;;;;21.66;32.49;94985.34;5068797;28;20879;-55
2022/05/02 08:04:22;;;;;;;10.63;8.37;;;;;;;21.71;31.73;94995.06;5068209;28;20910;-59
2022/05/02 08:07:12;;;;;;;12.00;7.83;;;;;;;21.50;31.96;94994.22;5067224;28;20444;-59
2022/05/02 08:09:56;;;;;;;9.50;8.33;;;;;;;21.78;31.58;94990.00;5068444;28;20962;-57
2022/05/02 08:12:33;;;;;;;9.37;8.30;;;;;;;20.98;32.12;94981.03;5050188;28;20916;-63
2022/05/02 08:15:22;;;;;;;8.27;7.47;;;;;;;21.02;32.46;94994.56;5068411;28;20502;-57
2022/05/02 08:18:04;;;;;;;12.00;9.20;;;;;;;21.08;32.88;94991.41;5068746;28;20999;-66
2022/05/02 08:20:53;;;;;;;16.63;9.63;;;;;;;21.14;32.32;95000.78;5067952;28;20533;-58
2022/05/02 08:27:17;;;;;;;11.17;9.67;;;;;;;22.02;31.38;95006.19;5068112;28;21035;-57
2022/05/02 08:30:07;;;;;;;14.33;9.23;;;;;;;22.16;31.34;94996.03;5066573;28;20541;-59
2022/05/02 08:33:08;;;;;;;28.80;25.53;;;;;;;22.50;30.59;94990.41;5068848;28;20877;-60
2022/05/02 08:35:58;;;;;;;12.17;8.60;;;;;;;22.32;30.06;94986.34;5068299;28;20462;-60
2022/05/02 08:38:43;;;;;;;18.13;9.27;;;;;;;22.07;30.31;94987.31;5069230;28;20434;-59
2022/05/02 08:41:24;;;;;;;14.03;11.83;;;;;;;21.58;30.57;94986.19;5069529;28;20908;-55
2022/05/02 08:44:28;;;;;;;39.50;35.50;;;;;;;21.49;30.72;94984.66;5068970;28;21029;-55
2022/05/02 08:46:58;;;;;;;12.27;11.07;;;;;;;22.54;30.30;94980.66;5067819;28;20449;-57
2022/05/02 08:49:43;;;;;;;11.97;8.43;;;;;;;21.50;29.77;94972.88;5068459;28;20439;-60
2022/05/02 08:52:13;;;;;;;9.20;8.33;;;;;;;21.65;30.21;94977.66;5068460;28;20457;-55
2022/05/02 08:54:58;;;;;;;10.47;6.80;;;;;;;21.42;29.18;94981.72;5067147;28;20446;-54
2022/05/02 08:57:31;;;;;;;7.90;6.47;;;;;;;21.78;28.90;94973.97;5067794;28;20442;-57
2022/05/02 09:00:22;;;;;;;9.27;6.93;;;;;;;22.24;28.64;94949.84;5067240;28;20485;-56
2022/05/02 09:03:47;;;;;;;7.13;6.23;;;;;;;22.77;28.33;94941.03;5067541;28;20469;-61
2022/05/02 09:06:20;;;;;;;7.63;5.57;;;;;;;23.22;27.79;94946.31;5066769;28;20441;-55
2022/05/02 09:09:22;;;;;;;5.33;4.83;;;;;;;22.94;27.31;94936.28;5067884;28;20497;-56
2022/05/02 09:12:29;;;;;;;13.70;6.13;;;;;;;22.56;27.90;94938.41;5066208;28;20445;-60
2022/05/02 09:15:14;;;;;;;7.40;5.73;;;;;;;22.94;27.36;94940.84;5022733;28;20857;-53
2022/05/02 09:18:13;;;;;;;175.30;155.03;;;;;;;23.43;27.65;94928.34;5067826;28;20473;-57
2022/05/02 09:20:40;;;;;;;16.20;8.20;;;;;;;23.30;27.03;94930.22;5066875;28;20446;-60
2022/05/02 09:23:16;;;;;;;18.30;12.87;;;;;;;23.30;26.84;94921.41;5067662;28;20215;-52
2022/05/02 09:26:06;;;;;;;10.90;6.63;;;;;;;22.84;27.72;94931.38;5066477;28;20542;-55
2022/05/02 09:28:47;;;;;;;15.23;9.40;;;;;;;23.65;27.90;94922.53;5067082;28;20450;-54
2022/05/02 09:31:45;;;;;;;12.37;5.73;;;;;;;23.27;27.25;94917.47;5067098;28;20438;-60
2022/05/02 09:34:18;;;;;;;16.23;14.10;;;;;;;23.68;27.43;94905.78;5067207;28;20203;-66
2022/05/02 09:37:11;;;;;;;25.20;16.93;;;;;;;23.22;26.34;94915.03;5066406;28;20438;-59
2022/05/02 09:40:02;;;;;;;7.53;5.00;;;;;;;23.23;26.65;94929.19;5068147;28;20200;-60
2022/05/02 09:42:51;;;;;;;5.80;4.13;;;;;;;22.97;25.95;94913.47;5068298;28;20562;-67
2022/05/02 09:51:31;;;;;;;55.30;49.60;;;;;;;23.51;26.18;94908.69;5067401;28;20442;-59
2022/05/02 09:54:14;;;;;;;74.23;66.23;;;;;;;23.49;24.81;94898.34;5069579;28;20188;-60
2022/05/02 09:56:46;;;;;;;5.37;4.17;;;;;;;22.81;25.33;94893.84;5067178;28;20442;-64
2022/05/02 09:59:30;;;;;;;8.17;3.47;;;;;;;22.74;24.76;94891.72;5066961;28;20907;-61
2022/05/02 10:02:19;;;;;;;4.33;3.90;;;;;;;22.90;25.03;94892.63;5066655;28;20195;-61
2022/05/02 10:05:20;;;;;;;4.53;4.13;;;;;;;22.71;26.03;94889.72;5067211;28;20476;-62
2022/05/02 10:08:14;;;;;;;6.80;4.57;;;;;;;22.68;26.04;94887.69;5067506;28;20519;-61
2022/05/02 10:10:59;;;;;;;4.97;4.47;;;;;;;22.89;24.67;94885.72;5067000;28;20470;-62
2022/05/02 10:14:03;;;;;;;7.13;3.63;;;;;;;23.21;24.56;94880.63;5067101;28;20453;-62
2022/05/02 10:16:55;;;;;;;6.17;4.20;;;;;;;23.30;25.09;94892.00;5065680;28;20445;-62
2022/05/02 10:19:46;;;;;;;5.20;4.37;;;;;;;23.18;25.07;94884.72;5065898;28;20434;-60
2022/05/02 10:22:29;;;;;;;45.60;38.00;;;;;;;23.71;25.57;94875.69;5066917;28;20446;-60
2022/05/02 10:25:20;;;;;;;8.23;6.07;;;;;;;23.41;25.21;94875.16;5066617;28;20326;-60
2022/05/02 10:28:03;;;;;;;6.63;4.30;;;;;;;23.43;24.68;94866.81;5066725;28;20553;-61
2022/05/02 10:30:42;;;;;;;5.27;4.40;;;;;;;23.21;24.28;94880.63;5066299;28;20217;-60
2022/05/02 10:33:21;;;;;;;5.50;3.37;;;;;;;23.24;23.87;94875.38;5067014;28;20474;-62
2022/05/02 10:35:51;;;;;;;4.23;3.50;;;;;;;23.39;24.39;94848.00;5065244;28;20446;-60
2022/05/02 10:38:29;;;;;;;61.53;49.97;;;;;;;23.86;24.57;94865.06;5067014;28;20442;-59
2022/05/02 10:41:07;;;;;;;60.17;41.73;;;;;;;24.18;24.02;94865.97;5068187;28;20433;-60
2022/05/02 10:43:36;;;;;;;6.40;3.10;;;;;;;23.65;23.29;94852.97;5072499;28;20215;-61
2022/05/02 10:46:03;;;;;;;11.80;3.80;;;;;;;23.93;24.61;94867.16;5071985;28;20796;-60
2022/05/02 10:48:42;;;;;;;3.87;2.90;;;;;;;23.44;23.81;94863.03;5072305;28;20511;-60
2022/05/02 10:51:40;;;;;;;7.93;4.37;;;;;;;23.19;25.04;94870.28;5071612;28;20641;-61
2022/05/02 10:54:48;;;;;;;3.70;2.90;;;;;;;23.68;24.59;94868.34;5072364;28;20226;-59
2022/05/02 10:57:20;;;;;;;6.53;3.33;;;;;;;24.23;23.88;94857.69;5072264;28;20448;-60
2022/05/02 10:59:51;;;;;;;4.07;3.53;;;;;;;23.91;24.14;94856.00;5071345;28;20231;-60
2022/05/02 11:02:39;;;;;;;4.33;3.90;;;;;;;23.83;23.63;94856.94;5071434;28;20447;-60
2022/05/02 11:05:22;;;;;;;4.03;3.40;;;;;;;23.73;23.88;94860.84;5072001;28;20199;-62
2022/05/02 11:07:54;;;;;;;4.27;3.40;;;;;;;24.03;24.74;94859.44;5071946;28;20192;-61
2022/05/02 11:10:27;;;;;;;5.70;3.63;;;;;;;23.79;24.19;94854.16;5071134;28;20309;-63
2022/05/02 11:13:23;;;;;;;5.83;3.43;;;;;;;23.51;25.50;94857.88;5072042;28;20215;-62
2022/05/02 11:16:10;;;;;;;4.40;3.67;;;;;;;23.30;25.20;94859.91;5071906;28;20200;-63
2022/05/02 11:22:04;;;;;;;6.80;3.83;;;;;;;23.67;25.58;94848.03;5070544;28;20709;-62
2022/05/02 11:24:38;;;;;;;6.43;3.93;;;;;;;23.96;26.24;94842.38;5071764;28;20223;-62
2022/05/02 11:27:36;;;;;;;16.80;15.00;;;;;;;24.17;25.41;94861.75;5071790;28;20230;-61
2022/05/02 11:30:07;;;;;;;86.37;76.23;;;;;;;24.36;25.50;94845.78;5069776;28;20211;-63
2022/05/02 11:32:57;;;;;;;14.17;7.13;;;;;;;24.26;26.88;94857.00;5071677;28;20211;-63
2022/05/02 11:35:29;;;;;;;5.23;4.47;;;;;;;24.28;26.99;94851.31;5053714;28;20295;-61
2022/05/02 11:38:02;;;;;;;5.57;3.87;;;;;;;24.01;25.81;94855.56;5071242;28;20278;-61
2022/05/02 11:40:41;;;;;;;9.90;4.10;;;;;;;23.05;27.12;94862.56;5071253;28;20792;-64
2022/05/02 11:43:09;;;;;;;10.33;4.67;;;;;;;23.43;27.39;94856.13;5071152;28;20212;-62
2022/05/02 11:45:44;;;;;;;6.13;3.63;;;;;;;23.33;26.40;94856.56;5070878;28;20200;-62
2022/05/02 11:48:20;;;;;;;15.00;4.77;;;;;;;23.10;27.62;94858.91;5071078;28;20576;-64
2022/05/02 11:50:48;;;;;;;27.30;21.33;;;;;;;22.92;28.16;94861.00;5070287;28;20249;-64
2022/05/02 11:53:16;;;;;;;28.37;25.10;;;;;;;23.46;27.22;94860.78;5070582;28;20441;-61
2022/05/02 11:55:47;;;;;;;4.37;3.97;;;;;;;22.89;26.60;94860.88;5070049;28;20231;-65
2022/05/02 11:58:24;;;;;;;6.23;4.37;;;;;;;23.11;26.21;94839.84;5070655;28;20817;-72
2022/05/02 12:01:02;;;;;;;4.53;3.77;;;;;;;22.82;25.87;94842.75;5070643;28;20204;-67
2022/05/02 12:03:36;;;;;;;5.50;4.20;;;;;;;23.07;26.82;94833.63;5070914;28;20203;-60
2022/05/02 12:06:08;;;;;;;6.27;4.10;;;;;;;22.67;27.09;94848.75;5070580;28;20285;-62
2022/05/02 12:08:38;;;;;;;7.40;3.93;;;;;;;22.81;26.80;94846.53;5070766;28;20192;-69
2022/05/02 12:11:10;;;;;;;4.53;4.13;;;;;;;22.98;26.52;94840.97;5070442;28;20851;-64
2022/05/02 12:13:47;;;;;;;7.37;4.90;;;;;;;23.25;26.62;94838.75;5070789;28;20449;-63
2022/05/02 12:16:16;;;;;;;4.20;3.80;;;;;;;22.41;26.93;94842.88;5070514;28;20449;-60
2022/05/02 12:18:55;;;;;;;4.73;4.33;;;;;;;23.12;27.18;94830.72;5070959;28;20477;-60
2022/05/02 12:21:31;;;;;;;8.93;4.27;;;;;;;22.98;26.86;94838.28;5070188;28;20491;-59
2022/05/02 12:24:03;;;;;;;7.53;4.97;;;;;;;22.94;27.60;94840.06;5070499;28;20211;-62
2022/05/02 12:26:33;;;;;;;62.47;55.90;;;;;;;22.97;27.81;94834.03;5070113;28;20250;-61
2022/05/02 12:29:11;;;;;;;8.33;5.60;;;;;;;21.92;27.73;94847.28;5070597;28;20426;-62
2022/05/02 12:31:42;;;;;;;4.07;3.67;;;;;;;21.73;28.20;94840.81;5069960;28;20475;-60
2022/05/02 12:34:12;;;;;;;12.33;7.20;;;;;;;22.29;28.75;94834.84;5069817;28;20456;-60
2022/05/02 12:36:45;;;;;;;7.30;5.00;;;;;;;21.75;28.56;94841.28;5069522;28;20208;-62